Gomer, Ohio
Current Conditions -  °F | °C
As of 6:53 PM on Monday 20 Oct 2014 (Local Time) from KAOH Reporting Station
Haze Haze  
Wind Chill: 55°   Ceiling: 3900
Heat Index: 55°   Visibility: 6mi
Dew Point: 52°   Wind: 6mph
Humidity: 89%   Direction: 200°SSW
Pressure: 29.84"   Gusts: NA
Location:  40.84°N, 84.19°W
Report Text: KAOH 202253Z AUTO 20005KT 6SM BR OVC039 13/11 A2984 RMK AO2 SLP107 T01280111
Loading
Personal Weather Stations






























Interactive Weather Map
Tropical Storm Tracking
New forecast layout! Learn more

10-Day Weather Forecast

Advertisements
Track Severe Weather on mobile